Latest Weather Observations for PORTABLE BCAB (DBCA)

IDW60801

Issued at 1:53 am WST Monday 5 June 2023 (issued every 10 minutes, with the page automatically refreshed every 10 minutes)

About weather observations | Map of weather stations | Latest weather observations for WA | Other Formats
Station Details ID: 250122 Name: DBCA PORTABLE AWS 2 (BCAB) Lat: -30.28 Lon: 115.09 Height: 0.0 m

Portable automatic weather stations (PAWS) are operated by other organisations, such as Fire and Emergency Services, and are included here by agreement. Portable stations may be deployed to a location for a short period and their location may be subject to change without notice. Wind observations from these stations are provided from heights of either three (3) or ten (10) metres above ground level (AGL).

Data from the previous 72 hours. | See also: Recent months for locations in Western Australia
Date/Time
WST
Temp
°C
App
Temp
°C
Dew
Point
°C
Rel
Hum
%
Delta-T
°C
Wind Press
QNH
hPa
Press
MSL
hPa
Rain since
9am
mm
Dir  Spd
km/h
Gust
km/h
Spd
kts
Gust
kts
05/01:40am 15.7 16.6 15.0 96 - WNW 4 4 2 2 - - 22.4
05/01:30am 15.9 17.0 15.5 97 - W 4 4 2 2 - - 22.4
05/01:20am 16.0 17.1 15.5 97 - W 4 6 2 3 - - 22.4
05/01:10am 15.9 16.5 15.4 97 - W 6 7 3 4 - - 22.4
05/01:00am 16.1 16.8 15.6 97 - W 6 9 3 5 - - 22.4
05/12:50am 16.1 17.0 16.0 99 - W 6 7 3 4 - - 22.4
05/12:40am 16.0 16.9 16.0 100 - WSW 6 7 3 4 - - 22.4
05/12:30am 16.1 17.4 16.1 100 - W 4 7 2 4 - - 22.2
05/12:20am 16.1 17.0 16.1 100 - W 6 9 3 5 - - 22.2
05/12:10am 16.2 16.9 16.2 100 - WSW 7 13 4 7 - - 22.0
05/12:00am 16.2 17.5 16.2 100 - W 4 6 2 3 - - 21.4
 
Date/Time
WST
Temp
°C
App
Temp
°C
Dew
Point
°C
Rel
Hum
%
Delta-T
°C
Wind Press
QNH
hPa
Press
MSL
hPa
Rain since
9am
mm
Dir  Spd
km/h
Gust
km/h
Spd
kts
Gust
kts
04/11:50pm 16.3 17.3 16.3 100 - WSW 6 7 3 4 - - 21.4
04/11:40pm 16.3 17.3 16.3 100 - WSW 6 9 3 5 - - 21.4
04/11:30pm 16.3 17.1 16.3 100 - WSW 7 9 4 5 - - 21.4
04/11:20pm 16.3 16.7 16.3 100 - SW 9 13 5 7 - - 21.4
04/11:10pm 16.5 15.7 16.1 97 - WSW 15 17 8 9 - - 21.4
04/11:00pm 17.0 17.5 16.6 97 - WNW 9 15 5 8 - - 21.4
04/10:50pm 17.0 17.6 16.7 98 - W 9 11 5 6 - - 21.4
04/10:40pm 17.1 17.4 17.1 100 - W 11 15 6 8 - - 21.4
04/10:30pm 16.9 17.9 16.9 100 - WNW 7 11 4 6 - - 21.4
04/10:20pm 16.5 16.6 16.5 100 - NNW 11 15 6 8 - - 21.4
04/10:10pm 15.7 16.3 15.7 100 - NNW 7 9 4 5 - - 20.6
04/10:00pm 15.4 15.8 15.4 100 - NNW 7 9 4 5 - - 20.4
04/09:50pm 15.1 15.4 15.1 100 - N 7 11 4 6 - - 20.4
04/09:40pm 14.9 15.7 14.9 100 - NNW 4 7 2 4 - - 20.0
04/09:30pm 14.8 15.0 14.3 97 - WNW 6 9 3 5 - - 17.0
04/09:20pm 15.4 16.1 14.4 94 - WNW 4 6 2 3 - - 5.8
04/09:10pm 15.5 15.4 14.0 91 - N 7 9 4 5 - - 0.2
04/09:00pm 15.8 15.4 14.1 90 - NNW 9 11 5 6 - - 0.2
04/08:50pm 16.5 15.8 14.2 86 - NNW 11 17 6 9 - - 0.2
04/08:40pm 17.2 16.3 12.6 74 - NNW 9 11 5 6 - - 0.0
04/08:30pm 17.2 16.2 12.3 73 - NNW 9 11 5 6 - - 0.0
04/08:20pm 17.1 15.7 12.2 73 - NNW 11 11 6 6 - - 0.0
04/08:10pm 17.2 15.8 12.1 72 - NNW 11 15 6 8 - - 0.0
04/08:00pm 17.2 15.4 12.1 72 - NNW 13 15 7 8 - - 0.0
04/07:50pm 17.1 15.6 11.9 71 - NNW 11 15 6 8 - - 0.0
04/07:40pm 17.1 15.1 11.6 70 - NNW 13 13 7 7 - - 0.0
04/07:30pm 17.0 15.4 11.5 70 - NNW 11 15 6 8 - - 0.0
04/07:20pm 17.0 14.9 11.3 69 - NNW 13 15 7 8 - - 0.0
04/07:10pm 17.0 14.9 11.2 68 - NNW 13 15 7 8 - - 0.0
04/07:00pm 17.0 15.3 11.2 68 - NNW 11 13 6 7 - - 0.0
04/06:50pm 17.1 15.0 11.2 68 - NNW 13 15 7 8 - - 0.0
04/06:40pm 17.3 15.2 11.2 67 - NNW 13 17 7 9 - - 0.0
04/06:30pm 17.4 14.9 11.1 66 - N 15 17 8 9 - - 0.0
04/06:20pm 17.4 15.3 11.1 66 - NNW 13 15 7 8 - - 0.0
04/06:10pm 17.6 15.5 11.2 66 - N 13 15 7 8 - - 0.0
04/06:00pm 17.7 15.7 11.4 66 - N 13 15 7 8 - - 0.0
04/05:50pm 17.9 16.2 11.2 65 - N 11 13 6 7 - - 0.0
04/05:40pm 18.3 16.6 11.3 63 - N 11 13 6 7 - - 0.0
04/05:30pm 18.6 16.5 11.3 62 - NNW 13 15 7 8 - - 0.0
04/05:20pm 18.8 17.0 12.0 64 - NNW 13 15 7 8 - - 0.0
04/05:10pm 19.2 17.6 11.4 60 - NNW 11 15 6 8 - - 0.0
04/05:00pm 19.3 17.7 11.6 61 - NNW 11 15 6 8 - - 0.0
04/04:50pm 19.5 17.6 11.7 60 - NNW 13 15 7 8 - - 0.0
04/04:40pm 19.8 17.4 11.5 58 - NNW 15 19 8 10 - - 0.0
04/04:30pm 19.8 17.8 11.4 58 - NNW 13 15 7 8 - - 0.0
04/04:20pm 19.8 17.7 11.3 58 - NNW 13 13 7 7 - - 0.0
04/04:10pm 19.7 17.2 11.1 57 - NNW 15 19 8 10 - - 0.0
04/04:00pm 20.4 17.9 11.1 55 - NNW 15 19 8 10 - - 0.0
04/03:50pm 20.2 17.6 10.6 54 - NNW 15 17 8 9 - - 0.0
04/03:40pm 20.5 18.4 11.0 54 - NNW 13 17 7 9 - - 0.0
04/03:30pm 20.4 18.2 10.9 54 - NW 13 15 7 8 - - 0.0
04/03:20pm 20.5 18.5 10.3 52 - NNW 11 15 6 8 - - 0.0
04/03:10pm 20.7 18.2 10.9 53 - NNW 15 17 8 9 - - 0.0
04/03:00pm 21.1 18.6 11.0 52 - NNW 15 19 8 10 - - 0.0
04/02:50pm 21.2 18.2 10.6 50 - NNW 17 22 9 12 - - 0.0
04/02:40pm 21.8 19.1 10.5 48 - NNW 15 17 8 9 - - 0.0
04/02:30pm 21.7 18.5 10.1 47 - NNW 17 20 9 11 - - 0.0
04/02:20pm 21.7 18.1 9.8 46 - NNW 19 20 10 11 - - 0.0
04/02:10pm 21.7 18.8 9.5 45 - NNW 15 19 8 10 - - 0.0
04/02:00pm 22.1 19.2 9.5 44 - NNW 15 17 8 9 - - 0.0
04/01:50pm 22.1 19.2 9.5 44 - NNW 15 17 8 9 - - 0.0
04/01:40pm 21.7 17.9 9.2 44 - NNW 19 22 10 12 - - 0.0
04/01:30pm 21.7 17.9 9.2 44 - NNW 19 22 10 12 - - 0.0
04/01:20pm 22.1 19.1 9.1 43 - NNW 15 19 8 10 - - 0.0
04/01:10pm 21.8 18.4 9.0 44 - NNW 17 19 9 10 - - 0.0
04/01:00pm 22.1 19.0 8.7 42 - NNW 15 17 8 9 - - 0.0
04/12:50pm 21.8 18.6 8.3 42 - NNW 15 17 8 9 - - 0.0
04/12:40pm 21.8 18.5 8.2 41 - NNW 15 17 8 9 - - 0.0
04/12:30pm 21.9 18.3 6.8 37 - NNW 15 17 8 9 - - 0.0
04/12:20pm 21.8 17.8 5.1 33 - NNW 15 20 8 11 - - 0.0
04/12:10pm 21.8 17.7 4.5 32 - NNW 15 17 8 9 - - 0.0
04/12:00pm 21.7 17.5 3.7 30 - NNW 15 20 8 11 - - 0.0
04/11:50am 21.6 17.5 4.2 32 - NNW 15 17 8 9 - - 0.0
04/11:40am 21.2 17.1 4.3 33 - NNW 15 17 8 9 - - 0.0
04/11:30am 21.2 17.5 4.2 32 - NNW 13 19 7 10 - - 0.0
04/11:20am 20.9 16.6 3.4 31 - NNW 15 19 8 10 - - 0.0
04/11:10am 20.7 16.5 3.9 33 - NNW 15 19 8 10 - - 0.0
04/11:00am 20.5 16.7 3.8 33 - NNW 13 19 7 10 - - 0.0
04/10:50am 20.1 16.3 4.0 34 - N 13 17 7 9 - - 0.0
04/10:40am 19.5 15.4 4.5 37 - N 15 17 8 9 - - 0.0
04/10:30am 19.0 14.5 4.2 37 - N 17 19 9 10 - - 0.0
04/10:20am 18.7 15.0 4.5 39 - NNW 13 17 7 9 - - 0.0
04/10:10am 18.5 14.4 4.1 38 - NNW 15 17 8 9 - - 0.0
04/10:00am 18.4 14.3 4.3 39 - NNW 15 19 8 10 - - 0.0
04/09:50am 18.2 14.1 4.1 39 - N 15 17 8 9 - - 0.0
04/09:40am 18.1 13.8 3.4 37 - N 15 19 8 10 - - 0.0
04/09:30am 17.8 14.0 4.0 40 - N 13 17 7 9 - - 0.0
04/09:20am 17.5 13.7 3.8 40 - N 13 17 7 9 - - 0.0
04/09:10am 17.3 13.9 3.9 41 - N 11 15 6 8 - - 0.0
04/09:00am 16.7 13.7 3.9 42 - N 9 11 5 6 - - 0.0
04/08:50am 15.9 12.5 4.2 45 - N 11 13 6 7 - - 0.0
04/08:40am 15.1 12.1 4.0 47 - N 9 13 5 7 - - 0.0
04/08:30am 14.5 11.1 4.0 49 - N 11 13 6 7 - - 0.0
04/08:20am 13.9 10.9 3.9 51 - N 9 11 5 6 - - 0.0
04/08:10am 13.4 10.3 3.8 52 - N 9 11 5 6 - - 0.0
04/08:00am 12.8 9.8 4.0 55 - N 9 9 5 5 - - 0.0
04/07:50am 12.2 9.6 4.0 57 - NNE 7 9 4 5 - - 0.0
04/07:40am 11.6 8.9 3.9 59 - NNE 7 9 4 5 - - 0.0
04/07:30am 10.9 8.8 3.9 62 - NNE 4 6 2 3 - - 0.0
04/07:20am 10.3 8.7 4.4 67 - NE 2 4 1 2 - - 0.0
04/07:10am 10.3 8.7 4.7 68 - NE 2 2 1 1 - - 0.0
04/07:00am 10.4 8.8 4.7 68 - NE 2 2 1 1 - - 0.0
04/06:50am 10.3 8.8 4.8 68 - NE 2 2 1 1 - - 0.0
04/06:40am 10.5 9.0 4.9 68 - ENE 2 4 1 2 - - 0.0
04/06:30am 10.7 9.2 5.0 68 - ENE 2 4 1 2 - - 0.0
04/06:20am 10.6 9.1 5.1 69 - NE 2 4 1 2 - - 0.0
04/06:10am 10.6 9.1 5.2 69 - ENE 2 2 1 1 - - 0.0
04/06:00am 10.7 9.3 5.3 69 - NE 2 4 1 2 - - 0.0
04/05:50am 10.9 9.5 5.3 68 - NE 2 4 1 2 - - 0.0
04/05:40am 11.1 9.7 5.3 67 - NE 2 4 1 2 - - 0.0
04/05:30am 11.0 9.6 5.4 68 - ENE 2 4 1 2 - - 0.0
04/05:20am 10.8 9.0 5.5 70 - ENE 4 4 2 2 - - 0.0
04/05:10am 10.7 9.0 5.7 71 - E 4 4 2 2 - - 0.0
04/05:00am 10.6 8.9 5.8 72 - E 4 4 2 2 - - 0.0
04/04:50am 10.6 9.3 5.8 72 - ENE 2 2 1 1 - - 0.0
04/04:40am 10.5 9.2 5.8 72 - NE 2 4 1 2 - - 0.0
04/04:30am 10.4 9.1 5.9 73 - ENE 2 4 1 2 - - 0.0
04/04:20am 10.3 9.0 6.1 75 - ENE 2 4 1 2 - - 0.0
04/04:10am 10.3 8.6 6.1 75 - E 4 4 2 2 - - 0.0
04/04:00am 10.1 8.8 6.2 77 - E 2 4 1 2 - - 0.0
04/03:50am 10.0 8.4 6.3 78 - E 4 4 2 2 - - 0.0
04/03:40am 9.9 8.3 6.4 79 - E 4 4 2 2 - - 0.0
04/03:30am 9.6 8.0 6.4 80 - E 4 4 2 2 - - 0.0
04/03:20am 9.4 7.8 6.4 81 - E 4 4 2 2 - - 0.0
04/03:10am 9.4 7.8 6.4 81 - E 4 4 2 2 - - 0.0
04/03:00am 9.4 7.8 6.4 81 - E 4 4 2 2 - - 0.0
04/02:50am 9.3 7.7 6.4 82 - E 4 6 2 3 - - 0.0
04/02:40am 9.2 7.6 6.4 83 - E 4 4 2 2 - - 0.0
04/02:30am 9.4 7.8 6.4 81 - E 4 4 2 2 - - 0.0
04/02:20am 9.3 8.1 6.4 82 - E 2 4 1 2 - - 0.0
04/02:10am 9.3 7.7 6.4 82 - E 4 4 2 2 - - 0.0
04/02:00am 9.3 7.7 6.3 81 - E 4 4 2 2 - - 0.0
04/01:50am 9.5 7.9 6.3 80 - E 4 6 2 3 - - 0.0
04/01:40am 9.4 7.8 6.3 81 - E 4 6 2 3 - - 0.0
04/01:30am 9.4 7.8 6.2 80 - E 4 4 2 2 - - 0.0
04/01:20am 9.5 7.9 6.2 80 - E 4 6 2 3 - - 0.0
04/01:10am 9.5 7.9 6.2 80 - E 4 6 2 3 - - 0.0
04/01:00am 9.5 7.9 6.2 80 - E 4 6 2 3 - - 0.0
04/12:50am 9.4 7.7 6.1 80 - E 4 6 2 3 - - 0.0
04/12:40am 9.4 7.4 6.1 80 - E 6 6 3 3 - - 0.0
04/12:30am 9.4 7.4 6.1 80 - E 6 6 3 3 - - 0.0
04/12:20am 9.4 7.7 6.1 80 - E 4 6 2 3 - - 0.0
04/12:10am 9.5 7.5 6.1 79 - E 6 6 3 3 - - 0.0
04/12:00am 9.4 7.7 6.0 79 - E 4 4 2 2 - - 0.0
 
Date/Time
WST
Temp
°C
App
Temp
°C
Dew
Point
°C
Rel
Hum
%
Delta-T
°C
Wind Press
QNH
hPa
Press
MSL
hPa
Rain since
9am
mm
Dir  Spd
km/h
Gust
km/h
Spd
kts
Gust
kts
03/11:50pm 9.3 7.6 6.0 80 - E 4 6 2 3 - - 0.0
03/11:40pm 9.2 7.5 5.9 80 - E 4 6 2 3 - - 0.0
03/11:30pm 9.5 7.8 5.9 78 - E 4 4 2 2 - - 0.0
03/11:20pm 9.8 8.1 5.9 77 - E 4 4 2 2 - - 0.0
03/11:10pm 9.9 8.2 5.9 76 - E 4 4 2 2 - - 0.0
03/11:00pm 10.0 8.3 5.9 75 - E 4 6 2 3 - - 0.0
03/10:50pm 10.1 8.0 5.9 75 - E 6 6 3 3 - - 0.0
03/10:40pm 10.4 8.3 6.0 74 - E 6 6 3 3 - - 0.0
03/10:30pm 10.5 8.8 6.0 74 - ENE 4 6 2 3 - - 0.0
03/10:20pm 10.5 8.8 6.0 74 - E 4 6 2 3 - - 0.0
03/10:10pm 10.4 8.3 6.0 74 - E 6 6 3 3 - - 0.0
03/10:00pm 10.6 8.9 6.0 73 - E 4 6 2 3 - - 0.0
03/09:50pm 10.8 9.1 6.1 73 - E 4 6 2 3 - - 0.0
03/09:40pm 10.8 8.7 6.0 72 - E 6 6 3 3 - - 0.0
03/09:30pm 10.8 8.8 6.1 73 - E 6 6 3 3 - - 0.0
03/09:20pm 11.0 9.0 6.2 72 - E 6 6 3 3 - - 0.0
03/09:10pm 11.3 9.7 6.2 71 - E 4 6 2 3 - - 0.0
03/09:00pm 11.6 9.6 6.2 69 - ENE 6 7 3 4 - - 0.0
03/08:50pm 11.7 9.7 6.1 68 - E 6 6 3 3 - - 0.0
03/08:40pm 11.6 9.6 6.1 69 - E 6 6 3 3 - - 0.0
03/08:30pm 11.5 9.9 6.2 70 - E 4 6 2 3 - - 0.0
03/08:20pm 11.3 9.7 6.2 71 - E 4 4 2 2 - - 0.0
03/08:10pm 11.4 9.8 6.3 71 - ENE 4 6 2 3 - - 0.0
03/08:00pm 11.4 9.8 6.3 71 - E 4 4 2 2 - - 0.0
03/07:50pm 11.4 10.2 6.3 71 - E 2 4 1 2 - - 0.0
03/07:40pm 11.5 10.2 6.2 70 - E 2 4 1 2 - - 0.0
03/07:30pm 11.6 10.3 6.1 69 - E 2 2 1 1 - - 0.0
03/07:20pm 11.7 10.4 6.0 68 - E 2 2 1 1 - - 0.0
03/07:10pm 11.8 10.5 6.0 67 - ESE 2 2 1 1 - - 0.0
03/07:00pm 12.0 11.1 6.0 66 - CALM 0 2 0 1 - - 0.0
03/06:50pm 12.3 11.0 6.0 65 - SE 2 6 1 3 - - 0.0
03/06:40pm 12.9 11.6 5.9 62 - ESE 2 2 1 1 - - 0.0
03/06:30pm 13.0 11.6 5.7 61 - E 2 2 1 1 - - 0.0
03/06:20pm 13.1 12.1 5.8 61 - CALM 0 0 0 0 - - 0.0
03/06:10pm 13.4 12.5 5.9 60 - CALM 0 2 0 1 - - 0.0
03/06:00pm 13.9 12.6 6.0 59 - ESE 2 2 1 1 - - 0.0
03/05:50pm 14.2 12.9 5.9 57 - SE 2 4 1 2 - - 0.0
03/05:40pm 14.5 13.2 6.2 57 - ESE 2 2 1 1 - - 0.0
03/05:30pm 14.8 13.9 6.0 55 - CALM 0 2 0 1 - - 0.0
03/05:20pm 15.3 14.5 6.4 55 - CALM 0 2 0 1 - - 0.0
03/05:10pm 16.0 14.8 6.6 53 - ESE 2 2 1 1 - - 0.0
03/05:00pm 17.1 15.9 6.6 50 - SE 2 4 1 2 - - 0.0
03/04:50pm 18.2 16.6 6.4 46 - ESE 4 4 2 2 - - 0.0
03/04:40pm 19.0 17.8 6.4 43 - ESE 2 4 1 2 - - 0.0
03/04:30pm 19.2 17.6 6.3 43 - ESE 4 6 2 3 - - 0.0
03/04:20pm 19.5 17.8 6.0 41 - E 4 6 2 3 - - 0.0
03/04:10pm 19.9 18.1 5.5 39 - E 4 6 2 3 - - 0.0
03/04:00pm 20.2 18.4 5.6 38 - ENE 4 6 2 3 - - 0.0
03/03:50pm 20.3 18.6 5.8 38 - E 4 4 2 2 - - 0.0
03/03:40pm 20.4 18.7 6.0 39 - SE 4 6 2 3 - - 0.0
03/03:30pm 20.5 18.8 5.7 38 - E 4 7 2 4 - - 0.0
03/03:20pm 20.6 18.8 5.4 37 - E 4 6 2 3 - - 0.0
03/03:10pm 20.8 19.1 6.0 38 - E 4 6 2 3 - - 0.0
03/03:00pm 20.4 18.7 5.8 38 - NNE 4 7 2 4 - - 0.0
03/02:50pm 20.6 18.8 5.5 37 - E 4 9 2 5 - - 0.0
03/02:40pm 20.4 18.3 5.8 38 - ENE 6 7 3 4 - - 0.0
03/02:30pm 20.1 18.0 5.6 38 - E 6 6 3 3 - - 0.0
03/02:20pm 19.8 17.8 6.1 40 - ESE 6 6 3 3 - - 0.0
03/02:10pm 20.2 18.2 6.3 40 - ESE 6 7 3 4 - - 0.0
03/02:00pm 20.2 18.2 6.2 40 - E 6 7 3 4 - - 0.0
03/01:50pm 19.8 18.1 5.8 40 - NNE 4 7 2 4 - - 0.0
03/01:40pm 19.6 17.6 6.3 42 - E 6 7 3 4 - - 0.0
03/01:30pm 20.1 18.1 6.2 40 - - 6 9 3 5 - - 0.0
03/01:20pm 20.0 18.3 5.9 39 - ENE 4 6 2 3 - - 0.0
03/01:10pm 19.9 18.3 6.3 41 - NE 4 6 2 3 - - 0.0
03/01:00pm 19.8 18.2 6.2 41 - NNE 4 7 2 4 - - 0.0
03/12:50pm 19.6 17.6 6.2 41 - NE 6 7 3 4 - - 0.0
03/12:40pm 19.8 17.8 6.2 41 - E 6 7 3 4 - - 0.0
03/12:30pm 19.5 17.6 6.6 43 - NE 6 7 3 4 - - 0.0
03/12:20pm 19.7 18.2 6.9 43 - ENE 4 6 2 3 - - 0.0
03/12:10pm 19.2 17.4 7.1 45 - ENE 6 7 3 4 - - 0.0
03/12:00pm 18.8 17.0 7.1 46 - E 6 7 3 4 - - 0.0
03/11:50am 18.4 16.5 6.7 46 - ENE 6 9 3 5 - - 0.0
03/11:40am 18.3 16.4 6.5 46 - E 6 7 3 4 - - 0.0
03/11:30am 18.0 16.1 6.6 47 - E 6 7 3 4 - - 0.0
03/11:20am 17.6 15.7 6.9 49 - ENE 6 9 3 5 - - 0.0
03/11:10am 17.4 15.5 6.9 50 - E 6 7 3 4 - - 0.0
03/11:00am 17.2 15.4 7.3 52 - E 6 7 3 4 - - 0.0
03/10:50am 17.0 15.2 7.2 52 - E 6 7 3 4 - - 0.0
03/10:40am 16.3 14.7 7.9 57 - E 6 7 3 4 - - 0.0
03/10:30am 15.7 14.1 8.0 60 - E 6 7 3 4 - - 0.0
03/10:20am 15.0 13.2 7.9 62 - E 7 9 4 5 - - 0.0
03/10:10am 14.5 12.8 8.4 67 - E 7 11 4 6 - - 0.0
03/10:00am 14.2 12.5 8.3 67 - ENE 7 9 4 5 - - 0.0
03/09:50am 13.9 12.2 8.3 69 - ENE 7 9 4 5 - - 0.0
03/09:40am 13.7 12.1 8.7 72 - ENE 7 7 4 4 - - 0.0
03/09:30am 13.2 11.7 8.6 73 - ENE 6 7 3 4 - - 0.0
03/09:20am 12.6 11.0 8.6 76 - ENE 7 9 4 5 - - 0.0
03/09:10am 12.0 10.3 8.4 78 - E 7 9 4 5 - - 0.0
03/09:00am 11.4 9.7 8.3 81 - ENE 7 9 4 5 - - 0.0
03/08:50am 10.6 9.1 8.4 86 - ENE 6 7 3 4 - - 0.0
03/08:40am 9.7 8.1 8.2 90 - ENE 6 7 3 4 - - 0.0
03/08:30am 9.1 7.5 8.0 93 - ENE 6 6 3 3 - - 0.0
03/08:20am 8.6 7.3 7.7 94 - E 4 6 2 3 - - 0.0
03/08:10am 8.2 6.8 7.4 95 - E 4 6 2 3 - - 0.0
03/08:00am 8.0 6.6 7.2 95 - E 4 6 2 3 - - 0.0
03/07:50am 7.8 6.4 7.1 95 - ENE 4 6 2 3 - - 0.0
03/07:40am 7.6 5.7 6.9 95 - ENE 6 6 3 3 - - 0.0
03/07:30am 7.4 5.5 6.9 97 - ENE 6 6 3 3 - - 0.0
03/07:20am 7.3 5.4 6.7 96 - ENE 6 7 3 4 - - 0.0
03/07:10am 7.0 5.1 6.5 97 - E 6 7 3 4 - - 0.0
03/07:00am 7.0 5.0 6.4 96 - E 6 6 3 3 - - 0.0
03/06:50am 7.0 5.1 6.6 97 - E 6 7 3 4 - - 0.0
03/06:40am 6.8 4.9 6.7 99 - E 6 6 3 3 - - 0.0
03/06:30am 6.0 4.3 5.9 99 - E 4 4 2 2 - - 0.0
03/06:20am 5.9 4.1 5.4 97 - E 4 4 2 2 - - 0.0
03/06:10am 6.1 4.3 5.6 97 - E 4 4 2 2 - - 0.0
03/06:00am 6.4 4.7 5.9 97 - E 4 6 2 3 - - 0.0
03/05:50am 6.6 4.9 6.1 97 - E 4 4 2 2 - - 0.0
03/05:40am 6.7 5.1 6.3 97 - E 4 4 2 2 - - 0.0
03/05:30am 6.8 5.2 6.4 97 - E 4 4 2 2 - - 0.0
03/05:20am 6.7 5.2 6.6 99 - E 4 4 2 2 - - 0.0
03/05:10am 6.4 4.8 6.4 100 - E 4 4 2 2 - - 0.0
03/05:00am 5.7 4.3 5.7 100 - ESE 2 4 1 2 - - 0.0
03/04:50am 5.7 4.3 5.6 99 - ESE 2 4 1 2 - - 0.0
03/04:40am 5.7 4.0 5.7 100 - SE 4 4 2 2 - - 0.0
03/04:30am 5.5 3.7 5.4 99 - SE 4 4 2 2 - - 0.0
03/04:20am 5.6 3.8 5.5 99 - SE 4 4 2 2 - - 0.0
03/04:10am 5.7 4.3 5.5 99 - ESE 2 4 1 2 - - 0.0
03/04:00am 5.7 4.3 5.6 99 - E 2 2 1 1 - - 0.0
03/03:50am 5.8 4.4 5.7 99 - E 2 2 1 1 - - 0.0
03/03:40am 5.8 4.4 5.7 99 - E 2 2 1 1 - - 0.0
03/03:30am 5.7 4.3 5.6 99 - E 2 4 1 2 - - 0.0
03/03:20am 5.6 4.2 5.5 99 - ESE 2 4 1 2 - - 0.0
03/03:10am 5.5 4.1 5.3 99 - - 2 2 1 1 - - 0.0
03/03:00am 5.5 4.0 5.2 98 - ESE 2 2 1 1 - - 0.0
03/02:50am 5.5 4.0 5.2 98 - E 2 4 1 2 - - 0.0
03/02:40am 5.8 4.4 5.4 97 - ESE 2 4 1 2 - - 0.0
03/02:30am 6.0 4.3 5.7 98 - ESE 4 4 2 2 - - 0.0
03/02:20am 6.0 4.7 5.8 99 - E 2 4 1 2 - - 0.0
03/02:10am 5.9 4.5 5.6 98 - E 2 2 1 1 - - 0.0
03/02:00am 5.9 4.5 5.6 98 - E 2 2 1 1 - - 0.0
03/01:50am 5.9 4.1 5.6 98 - ESE 4 4 2 2 - - 0.0
03/01:40am 6.0 5.0 5.7 98 - CALM 0 2 0 1 - - 0.0
03/01:30am 6.1 4.7 5.7 97 - E 2 2 1 1 - - 0.0
03/01:20am 6.2 5.2 5.8 97 - CALM 0 2 0 1 - - 0.0
03/01:10am 6.3 5.0 5.9 97 - E 2 2 1 1 - - 0.0
03/01:00am 6.3 5.0 5.9 97 - E 2 4 1 2 - - 0.0
03/12:50am 6.3 4.6 5.8 97 - ESE 4 4 2 2 - - 0.0
03/12:40am 6.6 5.3 6.1 97 - ESE 2 2 1 1 - - 0.0
03/12:30am 6.7 5.9 6.3 97 - CALM 0 2 0 1 - - 0.0
03/12:20am 6.3 5.3 5.8 97 - CALM 0 0 0 0 - - 0.0
03/12:10am 6.5 5.5 5.5 93 - CALM 0 2 0 1 - - 0.0
03/12:00am 6.9 5.9 5.8 93 - CALM 0 2 0 1 - - 0.0
 
Date/Time
WST
Temp
°C
App
Temp
°C
Dew
Point
°C
Rel
Hum
%
Delta-T
°C
Wind Press
QNH
hPa
Press
MSL
hPa
Rain since
9am
mm
Dir  Spd
km/h
Gust
km/h
Spd
kts
Gust
kts
02/11:50pm 7.4 6.1 6.2 92 - E 2 4 1 2 - - 0.0
02/11:40pm 7.6 6.0 6.3 91 - E 4 4 2 2 - - 0.0
02/11:30pm 7.8 6.2 6.5 91 - E 4 4 2 2 - - 0.0
02/11:20pm 7.9 6.4 6.6 91 - E 4 4 2 2 - - 0.0
02/11:10pm 8.0 6.8 6.6 91 - E 2 2 1 1 - - 0.0
02/11:00pm 8.3 7.2 6.8 90 - E 2 2 1 1 - - 0.0
02/10:50pm 8.5 7.4 6.9 90 - E 2 4 1 2 - - 0.0
02/10:40pm 8.6 7.1 7.0 90 - E 4 4 2 2 - - 0.0
02/10:30pm 8.6 7.2 7.2 91 - E 4 4 2 2 - - 0.0
02/10:20pm 8.0 6.9 7.1 94 - E 2 4 1 2 - - 0.0
02/10:10pm 8.1 7.0 6.9 92 - E 2 2 1 1 - - 0.0
02/10:00pm 8.2 7.2 7.3 94 - E 2 4 1 2 - - 0.0
02/09:50pm 8.2 7.6 7.2 93 - CALM 0 2 0 1 - - 0.0
02/09:40pm 8.2 7.2 7.3 94 - E 2 4 1 2 - - 0.0
02/09:30pm 8.3 7.3 7.3 93 - E 2 4 1 2 - - 0.0
02/09:20pm 8.4 7.4 7.3 93 - E 2 2 1 1 - - 0.0
02/09:10pm 8.6 7.6 7.2 91 - - 2 4 1 2 - - 0.0
02/09:00pm 8.7 8.1 7.2 90 - CALM 0 2 0 1 - - 0.0
02/08:50pm 8.8 8.2 7.4 91 - CALM 0 2 0 1 - - 0.0
02/08:40pm 9.2 8.5 7.1 87 - CALM 0 2 0 1 - - 0.0
02/08:30pm 9.9 9.3 7.5 85 - CALM 0 2 0 1 - - 0.0
02/08:20pm 10.3 9.4 7.6 83 - ESE 2 2 1 1 - - 0.0
02/08:10pm 10.5 9.9 7.6 82 - CALM 0 2 0 1 - - 0.0
02/08:00pm 10.3 9.3 7.5 83 - SE 2 2 1 1 - - 0.0
02/07:50pm 10.3 9.7 7.5 83 - CALM 0 2 0 1 - - 0.0
02/07:40pm 10.5 9.9 7.4 81 - CALM 0 2 0 1 - - 0.0
02/07:30pm 10.6 9.6 7.4 80 - ESE 2 4 1 2 - - 0.0
02/07:20pm 10.5 9.9 7.3 80 - CALM 0 2 0 1 - - 0.0
02/07:10pm 10.3 9.7 7.4 82 - CALM 0 2 0 1 - - 0.0
02/07:00pm 9.9 9.3 7.5 85 - CALM 0 2 0 1 - - 0.0
02/06:50pm 9.9 9.3 7.3 84 - CALM 0 0 0 0 - - 0.0
02/06:40pm 10.5 9.9 7.2 80 - CALM 0 0 0 0 - - 0.0
02/06:30pm 11.2 10.6 7.4 77 - CALM 0 0 0 0 - - 0.0
02/06:20pm 11.6 11.0 7.3 75 - CALM 0 2 0 1 - - 0.0
02/06:10pm 11.9 11.3 7.5 74 - CALM 0 2 0 1 - - 0.0
02/06:00pm 12.5 11.5 7.4 71 - E 2 2 1 1 - - 0.0
02/05:50pm 13.1 12.1 7.5 69 - E 2 2 1 1 - - 0.0
02/05:40pm 13.7 12.8 7.6 66 - E 2 2 1 1 - - 0.0
02/05:30pm 14.4 13.1 7.6 63 - E 4 4 2 2 - - 0.0
02/05:20pm 15.0 13.7 7.5 61 - E 4 6 2 3 - - 0.0
02/05:10pm 15.5 13.8 7.5 59 - E 6 6 3 3 - - 0.0
02/05:00pm 15.9 14.3 7.8 58 - E 6 7 3 4 - - 0.0
02/04:50pm 16.4 14.8 7.8 56 - E 6 9 3 5 - - 0.0
02/04:40pm 17.1 15.3 8.0 55 - E 7 9 4 5 - - 0.0
02/04:30pm 17.6 15.8 7.9 53 - E 7 11 4 6 - - 0.0
02/04:20pm 18.0 16.1 7.5 50 - ESE 7 9 4 5 - - 0.0
02/04:10pm 18.5 16.2 7.5 48 - ESE 9 11 5 6 - - 0.0
02/04:00pm 18.8 16.4 7.2 47 - ESE 9 11 5 6 - - 0.0
02/03:50pm 19.0 16.4 6.1 43 - ESE 9 11 5 6 - - 0.0
02/03:40pm 19.4 16.8 6.2 42 - SE 9 11 5 6 - - 0.0
02/03:30pm 19.5 16.5 6.0 41 - SE 11 13 6 7 - - 0.0
02/03:20pm 19.9 17.7 6.3 41 - ESE 7 9 4 5 - - 0.0
02/03:10pm 19.9 17.3 6.3 41 - SE 9 11 5 6 - - 0.0
02/03:00pm 20.0 17.4 5.9 39 - SE 9 11 5 6 - - 0.0
02/02:50pm 20.0 17.4 6.0 40 - SE 9 11 5 6 - - 0.0
02/02:40pm 19.8 17.3 6.4 41 - ESE 9 11 5 6 - - 0.0
02/02:30pm 20.1 17.7 7.1 43 - SE 9 11 5 6 - - 0.0
02/02:20pm 20.2 17.7 6.4 40 - SE 9 13 5 7 - - 0.0
02/02:10pm 20.3 18.3 6.9 41 - ESE 7 9 4 5 - - 0.0
02/02:00pm 20.1 17.6 6.6 41 - SE 9 11 5 6 - - 0.0
02/01:50pm 20.2 17.7 6.5 41 - SE 9 13 5 7 - - 0.0
02/01:40pm 20.2 17.8 6.8 41 - ESE 9 13 5 7 - - 0.0
02/01:30pm 20.2 17.8 7.1 42 - SE 9 11 5 6 - - 0.0
02/01:20pm 19.9 17.6 7.3 44 - SE 9 13 5 7 - - 0.0
02/01:10pm 19.7 17.0 7.2 44 - SE 11 11 6 6 - - 0.0
02/01:00pm 19.8 17.4 7.1 43 - SE 9 13 5 7 - - 0.0
02/12:50pm 19.8 17.1 7.5 45 - SE 11 13 6 7 - - 0.0
02/12:40pm 19.8 17.5 7.5 45 - ESE 9 13 5 7 - - 0.0
02/12:30pm 19.9 18.1 8.1 46 - SE 7 9 4 5 - - 0.0
02/12:20pm 19.5 17.3 7.8 46 - SE 9 13 5 7 - - 0.0
02/12:10pm 19.4 17.1 7.6 46 - SE 9 11 5 6 - - 0.0
02/12:00pm 19.4 17.1 7.5 46 - ESE 9 13 5 7 - - 0.0
02/11:50am 19.3 17.2 8.1 48 - SE 9 11 5 6 - - 0.0
02/11:40am 18.8 16.7 8.3 50 - ESE 9 11 5 6 - - 0.0
02/11:30am 18.7 16.1 7.9 49 - SE 11 13 6 7 - - 0.0
02/11:20am 18.6 16.8 8.1 50 - E 7 11 4 6 - - 0.0
02/11:10am 18.2 16.1 8.2 52 - ESE 9 13 5 7 - - 0.0
02/11:00am 18.0 15.9 8.3 53 - ESE 9 11 5 6 - - 0.0
02/10:50am 17.6 16.4 9.5 59 - E 6 7 3 4 - - 0.0
02/10:40am 17.3 15.7 8.8 57 - E 7 9 4 5 - - 0.0
02/10:30am 16.8 15.2 8.9 59 - E 7 9 4 5 - - 0.0
02/10:20am 16.2 14.7 9.3 63 - E 7 9 4 5 - - 0.0
02/10:10am 15.8 14.3 9.3 65 - E 7 7 4 4 - - 0.0
02/10:00am 15.7 14.4 10.0 69 - E 7 7 4 4 - - 0.0
02/09:50am 16.0 14.6 9.4 65 - E 7 9 4 5 - - 0.0
02/09:40am 15.6 14.2 9.6 67 - E 7 9 4 5 - - 0.0
02/09:30am 15.2 13.8 9.6 69 - E 7 7 4 4 - - 0.0
02/09:20am 14.9 13.7 9.6 70 - E 6 9 3 5 - - 0.0
02/09:10am 14.3 13.0 9.3 72 - E 6 7 3 4 - - 0.0
02/09:00am 13.8 12.5 9.3 74 - E 6 7 3 4 - - 0.0
02/08:50am 13.1 11.9 9.6 79 - E 6 7 3 4 - - 0.0
02/08:40am 12.6 11.8 9.7 82 - E 4 6 2 3 - - 0.0
02/08:30am 12.3 11.5 9.7 84 - E 4 6 2 3 - - 0.0
02/08:20am 12.0 11.2 9.6 85 - E 4 6 2 3 - - 0.0
02/08:10am 11.8 11.0 9.7 87 - E 4 6 2 3 - - 0.0
02/08:00am 11.5 10.7 9.7 89 - E 4 6 2 3 - - 0.0
02/07:50am 11.2 10.4 9.8 91 - E 4 4 2 2 - - 0.0
02/07:40am 11.3 10.5 9.8 90 - E 4 6 2 3 - - 0.0
02/07:30am 11.5 10.8 9.9 90 - E 4 4 2 2 - - 0.0
02/07:20am 11.7 11.0 10.0 89 - ENE 4 4 2 2 - - 0.0
02/07:10am 12.0 11.3 10.2 89 - ENE 4 4 2 2 - - 0.0
02/07:00am 12.0 11.3 10.2 89 - E 4 4 2 2 - - 0.0
02/06:50am 12.1 11.5 10.3 89 - E 4 4 2 2 - - 0.0
02/06:40am 12.0 11.4 10.3 89 - E 4 6 2 3 - - 0.0
02/06:30am 12.1 11.5 10.3 89 - E 4 4 2 2 - - 0.0
02/06:20am 12.1 11.5 10.4 89 - E 4 6 2 3 - - 0.0
02/06:10am 12.2 11.6 10.5 89 - E 4 4 2 2 - - 0.0
02/06:00am 12.2 11.6 10.4 89 - ENE 4 4 2 2 - - 0.0
02/05:50am 12.3 11.7 10.4 88 - E 4 4 2 2 - - 0.0
02/05:40am 12.3 11.7 10.4 88 - E 4 4 2 2 - - 0.0
02/05:30am 12.4 11.9 10.6 89 - E 4 6 2 3 - - 0.0
02/05:20am 12.4 11.9 10.7 89 - E 4 6 2 3 - - 0.0
02/05:10am 12.4 11.9 10.7 89 - E 4 4 2 2 - - 0.0
02/05:00am 12.4 11.9 10.7 89 - E 4 6 2 3 - - 0.0
02/04:50am 12.3 12.2 10.7 90 - ENE 2 4 1 2 - - 0.0
02/04:40am 12.4 12.3 10.7 89 - ENE 2 4 1 2 - - 0.0
02/04:30am 12.6 12.5 10.7 88 - E 2 4 1 2 - - 0.0
02/04:20am 12.7 12.2 10.7 88 - E 4 4 2 2 - - 0.0
02/04:10am 12.7 12.2 10.7 88 - E 4 4 2 2 - - 0.0
02/04:00am 12.6 12.5 10.8 89 - E 2 4 1 2 - - 0.0
02/03:50am 12.5 12.5 11.0 90 - ESE 2 4 1 2 - - 0.0
02/03:40am 12.5 12.1 11.1 91 - E 4 4 2 2 - - 0.0
02/03:30am 12.6 12.3 11.3 92 - E 4 4 2 2 - - 0.0
02/03:20am 12.7 12.8 11.4 92 - E 2 4 1 2 - - 0.0
02/03:10am 12.6 12.3 11.3 92 - E 4 4 2 2 - - 0.0
02/03:00am 12.5 12.5 11.3 92 - E 2 2 1 1 - - 0.0
02/02:50am 12.5 12.5 11.3 92 - E 2 4 1 2 - - 0.0
02/02:40am 12.5 12.5 11.3 92 - E 2 4 1 2 - - 0.0
02/02:30am 12.6 12.3 11.4 92 - E 4 4 2 2 - - 0.0
02/02:20am 12.6 12.7 11.6 94 - E 2 4 1 2 - - 0.0
02/02:10am 12.5 13.0 11.7 95 - CALM 0 0 0 0 - - 0.0
02/02:00am 12.4 12.6 11.7 95 - ENE 2 4 1 2 - - 0.0

Other formats

Comma delimited format used in spreadsheet applications
http://www.bom.gov.au/fwo/IDW60801/IDW60801.99456.axf

JavaScript Object Notation format (JSON) in row-major order
http://www.bom.gov.au/fwo/IDW60801/IDW60801.99456.json

Data quality

Most of these data are generated automatically and are frequently updated. Quality checks on data are not normally performed. It is possible for incorrect values to appear. Refer to information at About Latest Weather Observations and please check the disclaimer before using these data.